createdAt,value
2024-04-21T00:04:44.281Z,62.97
2024-04-21T00:09:53.120Z,60.35
2024-04-21T00:14:59.166Z,53.60
2024-04-21T00:20:06.396Z,57.15
2024-04-21T00:25:15.127Z,54.17
2024-04-21T00:30:21.262Z,43.58
2024-04-21T00:35:27.257Z,42.33
2024-04-21T00:40:35.945Z,23.48
2024-04-21T00:45:44.639Z,26.77
2024-04-21T00:50:52.516Z,26.63
2024-04-21T00:56:02.168Z,28.73
2024-04-21T01:01:08.794Z,23.98
2024-04-21T01:06:15.020Z,23.15
2024-04-21T01:11:24.380Z,18.95
2024-04-21T01:16:30.637Z,20.52
2024-04-21T01:21:36.650Z,19.90
2024-04-21T01:26:45.208Z,17.63
2024-04-21T01:31:51.548Z,19.08
2024-04-21T01:36:57.504Z,21.58
2024-04-21T01:42:06.294Z,16.92
2024-04-21T01:47:12.359Z,17.25
2024-04-21T01:52:18.954Z,19.40
2024-04-21T01:57:27.580Z,16.60
2024-04-21T02:02:33.501Z,17.83
2024-04-21T02:07:39.569Z,17.10
2024-04-21T02:12:48.179Z,16.48
2024-04-21T02:17:54.199Z,20.25
2024-04-21T02:23:00.319Z,19.92
2024-04-21T02:28:09.459Z,20.52
2024-04-21T02:33:15.503Z,18.45
2024-04-21T02:38:21.618Z,20.80
2024-04-21T02:43:30.293Z,21.60
2024-04-21T02:48:36.402Z,21.20
2024-04-21T02:53:42.454Z,19.33
2024-04-21T02:58:51.046Z,19.67
2024-04-21T03:03:57.255Z,18.55
2024-04-21T03:09:03.309Z,17.80
2024-04-21T03:14:12.044Z,16.35
2024-04-21T03:19:18.149Z,16.75
2024-04-21T03:24:24.449Z,15.57
2024-04-21T03:29:33.047Z,15.50
2024-04-21T03:34:38.981Z,15.27
2024-04-21T03:39:45.132Z,16.73
2024-04-21T03:44:53.830Z,17.48
2024-04-21T03:49:59.825Z,14.05
2024-04-21T03:55:05.991Z,15.95
2024-04-21T04:00:18.683Z,16.63
2024-04-21T04:05:27.307Z,14.85
2024-04-21T04:10:39.722Z,16.35
2024-04-21T04:15:50.124Z,16.42
2024-04-21T04:20:56.142Z,18.05
2024-04-21T04:26:11.437Z,14.27
2024-04-21T04:31:23.414Z,15.48
2024-04-21T04:36:29.691Z,14.10
2024-04-21T04:41:46.439Z,13.82
2024-04-21T04:47:05.997Z,12.95
2024-04-21T04:52:13.341Z,12.23
2024-04-21T04:57:19.400Z,12.23
2024-04-21T05:02:28.272Z,11.43
2024-04-21T05:07:35.216Z,10.95
2024-04-21T05:12:42.410Z,12.90
2024-04-21T05:17:51.726Z,11.07
2024-04-21T05:22:57.797Z,11.80
2024-04-21T05:28:03.857Z,10.13
2024-04-21T05:33:12.633Z,10.70
2024-04-21T05:38:18.784Z,10.55
2024-04-21T05:43:25.003Z,10.48
2024-04-21T05:48:34.187Z,9.93
2024-04-21T05:53:40.671Z,9.07
2024-04-21T05:58:46.760Z,9.80
2024-04-21T06:03:55.585Z,16.05
2024-04-21T06:09:01.699Z,15.45
2024-04-21T06:14:11.273Z,15.60
2024-04-21T06:19:22.488Z,14.57
2024-04-21T06:24:28.486Z,16.30
2024-04-21T06:29:34.641Z,14.02
2024-04-21T06:34:43.388Z,15.40
2024-04-21T06:39:49.626Z,16.70
2024-04-21T06:44:57.765Z,15.18
2024-04-21T06:50:14.771Z,14.82
2024-04-21T06:55:20.945Z,13.32
2024-04-21T07:00:27.153Z,15.68
2024-04-21T07:05:35.900Z,14.63
2024-04-21T07:10:42.141Z,12.20
2024-04-21T07:15:48.323Z,10.93
2024-04-21T07:20:57.088Z,11.85
2024-04-21T07:26:05.329Z,12.63
2024-04-21T07:31:11.217Z,10.82
2024-04-21T07:36:19.939Z,10.98
2024-04-21T07:41:26.352Z,10.82
2024-04-21T07:46:32.266Z,10.13
2024-04-21T07:51:40.991Z,9.75
2024-04-21T07:56:48.849Z,11.05
2024-04-21T08:01:54.972Z,11.43
2024-04-21T08:07:03.996Z,14.70
2024-04-21T08:12:10.920Z,14.05
2024-04-21T08:17:17.161Z,15.52
2024-04-21T08:22:25.857Z,14.13
2024-04-21T08:27:31.898Z,13.23
2024-04-21T08:32:38.083Z,12.82
2024-04-21T08:37:46.790Z,12.60
2024-04-21T08:42:57.687Z,13.60
2024-04-21T08:48:04.078Z,13.50
2024-04-21T08:53:13.062Z,14.82
2024-04-21T08:58:20.530Z,13.32
2024-04-21T09:03:27.236Z,12.73
2024-04-21T09:08:36.441Z,9.63
2024-04-21T09:13:42.740Z,10.27
2024-04-21T09:18:49.077Z,10.25
2024-04-21T09:23:59.353Z,10.85
2024-04-21T09:29:06.280Z,13.07
2024-04-21T09:34:12.471Z,8.30
2024-04-21T09:39:21.663Z,9.70
2024-04-21T09:44:29.864Z,10.75
2024-04-21T09:49:38.327Z,8.95
2024-04-21T09:54:47.900Z,11.63
2024-04-21T10:00:03.027Z,11.07
2024-04-21T10:05:16.574Z,9.57
2024-04-21T10:10:25.899Z,8.13
2024-04-21T10:15:33.842Z,9.32
2024-04-21T10:20:43.620Z,9.35
2024-04-21T10:25:55.461Z,10.27
2024-04-21T10:31:08.404Z,7.80
2024-04-21T10:36:22.229Z,8.63
2024-04-21T10:41:34.207Z,8.65
2024-04-21T10:46:40.116Z,8.07
2024-04-21T10:51:46.196Z,9.65
2024-04-21T10:57:02.801Z,13.50
2024-04-21T11:02:09.364Z,12.43
2024-04-21T11:07:15.585Z,12.90
2024-04-21T11:12:24.718Z,12.95
2024-04-21T11:17:31.660Z,14.52
2024-04-21T11:22:37.749Z,13.10
2024-04-21T11:27:46.875Z,11.25
2024-04-21T11:32:56.836Z,10.77
2024-04-21T11:38:21.072Z,12.75
2024-04-21T11:43:30.344Z,13.85
2024-04-21T11:48:37.876Z,13.18
2024-04-21T11:53:44.664Z,13.45
2024-04-21T11:58:53.695Z,12.65
2024-04-21T12:04:00.530Z,12.68
2024-04-21T12:09:09.933Z,12.20
2024-04-21T12:14:34.415Z,14.13
2024-04-21T12:19:40.695Z,11.73
2024-04-21T12:24:46.970Z,15.77
2024-04-21T12:29:56.172Z,13.43
2024-04-21T12:35:02.294Z,12.93
2024-04-21T12:40:10.237Z,11.40
2024-04-21T12:45:18.919Z,11.45
2024-04-21T12:50:26.495Z,11.13
2024-04-21T12:55:32.854Z,10.23
2024-04-21T13:00:42.034Z,9.02
2024-04-21T13:05:48.565Z,9.68
2024-04-21T13:10:55.156Z,9.77
2024-04-21T13:16:04.596Z,10.15
2024-04-21T13:21:10.756Z,9.43
2024-04-21T13:26:17.076Z,10.10
2024-04-21T13:31:27.330Z,9.60
2024-04-21T13:36:39.286Z,8.48
2024-04-21T13:41:48.685Z,9.75
2024-04-21T13:46:57.847Z,10.07
2024-04-21T13:52:07.564Z,10.65
2024-04-21T13:57:16.385Z,10.30
2024-04-21T14:02:27.594Z,10.20
2024-04-21T14:07:33.765Z,9.70
2024-04-21T14:12:40.141Z,9.10
2024-04-21T14:17:49.312Z,9.98
2024-04-21T14:22:55.350Z,9.55
2024-04-21T14:28:02.006Z,9.15
2024-04-21T14:33:14.509Z,9.50
2024-04-21T14:38:24.568Z,8.40
2024-04-21T14:43:33.823Z,9.77
2024-04-21T14:48:43.184Z,9.52
2024-04-21T14:59:41.292Z,9.63
2024-04-21T15:04:50.021Z,8.80
2024-04-21T15:09:56.456Z,9.10
2024-04-21T15:15:02.386Z,8.57
2024-04-21T15:20:13.980Z,8.80
2024-04-21T15:25:21.488Z,8.55
2024-04-21T15:30:29.307Z,8.75
2024-04-21T15:35:40.483Z,11.05
2024-04-21T15:40:46.762Z,9.98
2024-04-21T15:45:52.872Z,12.30
2024-04-21T15:51:04.093Z,8.82
2024-04-21T15:56:10.603Z,9.63
2024-04-21T16:01:16.910Z,9.60
2024-04-21T16:06:25.710Z,8.77
2024-04-21T16:11:31.781Z,10.13
2024-04-21T16:16:40.642Z,8.68
2024-04-21T16:21:49.551Z,8.95
2024-04-21T16:26:55.899Z,9.68
2024-04-21T16:32:02.096Z,9.43
2024-04-21T16:37:14.100Z,9.10
2024-04-21T16:42:20.785Z,9.15
2024-04-21T16:47:32.325Z,10.40
2024-04-21T16:52:41.717Z,10.30
2024-04-21T16:57:56.229Z,11.35
2024-04-21T17:03:03.164Z,10.40
2024-04-21T17:08:26.657Z,10.68
2024-04-21T17:13:34.512Z,9.88
2024-04-21T17:18:43.066Z,10.98
2024-04-21T17:23:52.184Z,11.20
2024-04-21T17:29:13.397Z,10.27
2024-04-21T17:34:32.056Z,10.63
2024-04-21T17:39:43.374Z,9.98
2024-04-21T17:44:49.718Z,11.73
2024-04-21T17:49:56.295Z,10.32
2024-04-21T17:55:14.181Z,11.18
2024-04-21T18:00:25.063Z,10.95
2024-04-21T18:05:36.792Z,10.15
2024-04-21T18:18:44.921Z,10.05
2024-04-21T18:24:43.929Z,10.13
2024-04-21T18:30:00.756Z,9.95
2024-04-21T18:35:07.840Z,9.23
2024-04-21T18:40:17.430Z,10.13
2024-04-21T18:45:26.975Z,11.60
2024-04-21T18:50:33.722Z,11.65
2024-04-21T18:55:43.577Z,10.80
2024-04-21T19:00:52.841Z,9.05
2024-04-21T19:06:01.266Z,8.75
2024-04-21T19:11:11.690Z,9.02
2024-04-21T19:16:24.714Z,11.43
2024-04-21T19:21:31.958Z,9.80
2024-04-21T19:26:39.289Z,9.75
2024-04-21T19:31:48.381Z,9.20
2024-04-21T19:36:54.599Z,9.20
2024-04-21T19:42:00.789Z,9.40
2024-04-21T19:47:09.921Z,10.25
2024-04-21T19:52:16.199Z,10.32
2024-04-21T19:57:22.383Z,11.38
2024-04-21T20:02:32.479Z,9.82
2024-04-21T20:07:39.263Z,10.27
2024-04-21T20:12:45.471Z,11.23
2024-04-21T20:18:10.304Z,9.85
2024-04-21T20:23:16.647Z,10.20
2024-04-21T20:28:22.975Z,9.50
2024-04-21T20:33:31.855Z,10.13
2024-04-21T20:38:38.054Z,11.10
2024-04-21T20:43:44.216Z,10.45
2024-04-21T20:48:55.693Z,9.95
2024-04-21T20:54:04.693Z,10.77
2024-04-21T20:59:11.372Z,10.45
2024-04-21T21:04:20.730Z,10.45
2024-04-21T21:09:29.126Z,9.63
2024-04-21T21:14:37.790Z,11.57
2024-04-21T21:19:46.548Z,11.63
2024-04-21T21:24:53.006Z,12.85
2024-04-21T21:29:59.148Z,11.18
2024-04-21T21:35:09.028Z,12.68
2024-04-21T21:40:15.421Z,12.25
2024-04-21T21:45:21.466Z,11.52
2024-04-21T21:50:30.486Z,12.20
2024-04-21T21:55:36.687Z,12.25
2024-04-21T22:00:43.093Z,12.25
2024-04-21T22:05:52.072Z,11.15
2024-04-21T22:10:58.568Z,10.25
2024-04-21T22:16:07.463Z,10.93
2024-04-21T22:21:16.866Z,10.27
2024-04-21T22:26:22.911Z,10.05
2024-04-21T22:31:37.286Z,11.15
2024-04-21T22:36:51.830Z,12.52
2024-04-21T22:41:57.864Z,11.15
2024-04-21T22:47:04.440Z,11.30
2024-04-21T22:52:13.670Z,11.68
2024-04-21T22:57:19.644Z,9.65
2024-04-21T23:02:25.796Z,10.43
2024-04-21T23:07:34.495Z,10.63
2024-04-21T23:12:40.517Z,11.18
2024-04-21T23:17:46.594Z,10.75
2024-04-21T23:22:55.291Z,12.25
2024-04-21T23:28:01.367Z,10.60
2024-04-21T23:33:07.890Z,11.68
2024-04-21T23:38:16.675Z,11.65
2024-04-21T23:43:22.755Z,11.73
2024-04-21T23:48:29.446Z,11.63
2024-04-21T23:53:38.182Z,11.18
2024-04-21T23:58:44.335Z,11.95
